Time;durP1;ratioP1;P1;durP2;ratioP2;P2;SDS_P1;SDS_P2;PMS_P1;PMS_P2;Temp;Humidity;BMP_temperature;BMP_pressure;BME280_temperature;BME280_humidity;BME280_pressure;Samples;Min_cycle;Max_cycle;Signal;HPM_P1;HPM_P2
2021/10/08 00:01:36;;;;;;;1.33;0.87;;;14.30;99.90;;;;;;4985260;28;20234;-88
2021/10/08 00:04:07;;;;;;;1.13;0.87;;;14.20;99.90;;;;;;4989772;28;20219;-90
2021/10/08 00:06:39;;;;;;;3.57;1.20;;;14.20;99.90;;;;;;4986750;28;20258;-89
2021/10/08 00:09:12;;;;;;;2.83;1.03;;;14.10;99.90;;;;;;4982295;28;20234;-89
2021/10/08 00:11:43;;;;;;;2.07;0.90;;;14.10;99.90;;;;;;5008525;28;20226;-89
2021/10/08 00:14:15;;;;;;;1.60;0.90;;;14.00;99.90;;;;;;4989398;28;20632;-89
2021/10/08 00:16:50;;;;;;;1.33;0.83;;;13.80;99.90;;;;;;4993000;28;20204;-90
2021/10/08 00:19:22;;;;;;;1.17;0.70;;;13.70;99.90;;;;;;4992666;28;20652;-89
2021/10/08 00:21:54;;;;;;;1.03;0.83;;;13.60;99.90;;;;;;4994563;28;20215;-89
2021/10/08 00:24:34;;;;;;;2.17;1.20;;;13.50;99.90;;;;;;4990157;28;20269;-89
2021/10/08 00:27:05;;;;;;;1.07;0.80;;;13.40;99.90;;;;;;4993347;28;20207;-90
2021/10/08 00:34:48;;;;;;;2.80;1.10;;;13.00;99.90;;;;;;5012854;28;20215;-90
2021/10/08 00:37:20;;;;;;;2.23;0.90;;;13.00;99.90;;;;;;5014444;28;20214;-90
2021/10/08 00:40:06;;;;;;;1.27;0.87;;;12.90;99.90;;;;;;5013133;28;20213;-90
2021/10/08 00:42:41;;;;;;;1.47;0.80;;;12.90;99.90;;;;;;4996345;28;20206;-89
2021/10/08 00:45:13;;;;;;;3.20;1.13;;;12.90;99.90;;;;;;5013622;28;20206;-89
2021/10/08 00:47:47;;;;;;;1.77;1.37;;;12.80;99.90;;;;;;5014309;28;20218;-89
2021/10/08 00:50:22;;;;;;;1.37;1.10;;;12.70;99.90;;;;;;5018196;28;20212;-89
2021/10/08 00:58:11;;;;;;;1.20;0.80;;;12.50;99.90;;;;;;5052898;28;20211;-89
2021/10/08 01:00:44;;;;;;;2.53;1.00;;;12.50;99.90;;;;;;5058136;28;20197;-91
2021/10/08 01:03:17;;;;;;;1.07;0.97;;;12.40;99.90;;;;;;5056491;28;20629;-90
2021/10/08 01:05:53;;;;;;;3.20;1.00;;;12.30;99.90;;;;;;5047637;28;20232;-90
2021/10/08 01:08:25;;;;;;;2.17;1.20;;;12.20;99.90;;;;;;5031962;28;20220;-90
2021/10/08 01:10:58;;;;;;;1.47;0.87;;;12.10;99.90;;;;;;5010666;28;20217;-89
2021/10/08 01:13:31;;;;;;;2.07;1.30;;;12.00;99.90;;;;;;4995651;28;20241;-89
2021/10/08 01:16:02;;;;;;;3.80;1.20;;;11.90;99.90;;;;;;5027365;28;20236;-89
2021/10/08 01:18:35;;;;;;;3.63;1.30;;;11.70;99.90;;;;;;5035032;28;20194;-89
2021/10/08 01:21:09;;;;;;;1.57;1.03;;;11.60;99.90;;;;;;5017829;28;20206;-91
2021/10/08 01:23:41;;;;;;;1.70;1.20;;;11.50;99.90;;;;;;5009210;28;20237;-90
2021/10/08 01:26:14;;;;;;;2.17;1.30;;;11.40;99.90;;;;;;5029556;28;20236;-88
2021/10/08 01:28:48;;;;;;;3.20;1.20;;;11.20;99.90;;;;;;5036951;28;20220;-91
2021/10/08 01:31:21;;;;;;;2.40;1.20;;;11.10;99.90;;;;;;5018797;28;20680;-89
2021/10/08 01:33:53;;;;;;;2.10;1.30;;;11.00;99.90;;;;;;5018731;28;20241;-88
2021/10/08 01:36:28;;;;;;;2.73;1.77;;;11.00;99.90;;;;;;5011446;28;20209;-89
2021/10/08 01:39:00;;;;;;;1.80;1.30;;;10.90;99.90;;;;;;5014061;28;20229;-90
2021/10/08 01:41:31;;;;;;;2.33;1.40;;;10.80;99.90;;;;;;5029107;28;20217;-89
2021/10/08 01:44:03;;;;;;;4.13;1.70;;;10.80;99.90;;;;;;5025923;28;20209;-90
2021/10/08 01:46:35;;;;;;;2.23;1.50;;;10.70;99.90;;;;;;5016993;28;20321;-89
2021/10/08 01:49:08;;;;;;;2.07;1.80;;;10.60;99.90;;;;;;5017999;28;20237;-89
2021/10/08 01:51:42;;;;;;;2.93;2.07;;;10.50;99.90;;;;;;4998855;28;20574;-90
2021/10/08 01:54:13;;;;;;;4.93;1.70;;;10.50;99.90;;;;;;5028452;28;20260;-90
2021/10/08 01:56:46;;;;;;;2.07;1.60;;;10.40;99.90;;;;;;5018721;28;20674;-90
2021/10/08 01:59:18;;;;;;;4.17;1.70;;;10.30;99.90;;;;;;5030137;28;20205;-90
2021/10/08 02:01:51;;;;;;;2.17;1.57;;;10.30;99.90;;;;;;5031581;28;20224;-88
2021/10/08 02:04:23;;;;;;;4.17;1.60;;;10.20;99.90;;;;;;5029086;28;20213;-89
2021/10/08 02:06:57;;;;;;;2.07;1.87;;;10.10;99.90;;;;;;5029537;28;20217;-91
2021/10/08 02:09:30;;;;;;;2.47;1.93;;;10.00;99.90;;;;;;5030747;28;20206;-90
2021/10/08 02:12:03;;;;;;;2.63;1.97;;;9.90;99.90;;;;;;5032302;28;20205;-89
2021/10/08 02:14:36;;;;;;;3.20;1.77;;;9.80;99.90;;;;;;5013345;28;20287;-89
2021/10/08 02:17:09;;;;;;;7.23;2.10;;;9.80;99.90;;;;;;5030273;28;20216;-90
2021/10/08 02:19:41;;;;;;;3.03;1.90;;;9.70;99.90;;;;;;5012861;28;20198;-90
2021/10/08 02:22:16;;;;;;;6.00;1.87;;;9.60;99.90;;;;;;5005276;28;20202;-89
2021/10/08 02:24:48;;;;;;;3.43;1.73;;;9.50;99.90;;;;;;4990071;28;20224;-89
2021/10/08 02:27:23;;;;;;;4.43;1.87;;;9.50;99.90;;;;;;5028950;28;20206;-88
2021/10/08 02:29:54;;;;;;;2.57;1.90;;;9.50;99.90;;;;;;5018354;28;20208;-89
2021/10/08 02:32:28;;;;;;;1.93;1.70;;;9.40;99.90;;;;;;5013943;28;20643;-89
2021/10/08 02:34:59;;;;;;;3.00;1.80;;;9.40;99.90;;;;;;5021742;28;20215;-90
2021/10/08 02:37:33;;;;;;;1.67;1.50;;;9.40;99.90;;;;;;5003399;28;20209;-89
2021/10/08 02:40:07;;;;;;;2.70;1.67;;;9.30;99.90;;;;;;5019841;28;20210;-89
2021/10/08 02:42:40;;;;;;;4.37;2.30;;;9.30;99.90;;;;;;5023421;28;20209;-90
2021/10/08 02:45:12;;;;;;;2.87;2.07;;;9.20;99.90;;;;;;5026504;28;20244;-90
2021/10/08 02:47:47;;;;;;;4.70;2.03;;;9.20;99.90;;;;;;5031183;28;20205;-89
2021/10/08 02:50:23;;;;;;;5.67;1.70;;;9.10;99.90;;;;;;5009599;23;20257;-89
2021/10/08 02:52:57;;;;;;;2.53;2.00;;;9.10;99.90;;;;;;4991945;28;20250;-89
2021/10/08 02:55:29;;;;;;;2.47;1.70;;;9.10;99.90;;;;;;4992271;28;20233;-88
2021/10/08 02:58:01;;;;;;;1.93;1.50;;;9.10;99.90;;;;;;4977301;28;20241;-89
2021/10/08 03:00:42;;;;;;;3.37;1.80;;;9.00;99.90;;;;;;4976876;28;20206;-90
2021/10/08 03:03:30;;;;;;;1.90;1.60;;;9.00;99.90;;;;;;5340611;23;20399;-89
2021/10/08 03:06:03;;;;;;;3.50;1.83;;;8.90;99.90;;;;;;5057171;28;20227;-90
2021/10/08 03:42:06;;;;;;;3.30;1.67;;;8.60;99.90;;;;;;5053895;28;20230;-90
2021/10/08 03:44:39;;;;;;;2.87;2.00;;;8.50;99.90;;;;;;5059807;28;20204;-89
2021/10/08 03:49:54;;;;;;;5.83;2.50;;;8.50;99.90;;;;;;5614050;22;20855;-90
2021/10/08 03:52:25;;;;;;;5.33;1.70;;;8.40;99.90;;;;;;4999771;28;20214;-90
2021/10/08 03:54:57;;;;;;;3.30;2.10;;;8.40;99.90;;;;;;5016582;28;20246;-90
2021/10/08 03:57:31;;;;;;;2.83;2.03;;;8.40;99.90;;;;;;5016169;28;20267;-90
2021/10/08 04:00:04;;;;;;;3.17;1.90;;;8.30;99.90;;;;;;5015800;28;20206;-90
2021/10/08 04:02:37;;;;;;;2.27;1.90;;;8.30;99.90;;;;;;5014796;28;20239;-90
2021/10/08 04:05:10;;;;;;;2.20;1.90;;;8.30;99.90;;;;;;5014351;28;20228;-90
2021/10/08 04:07:42;;;;;;;3.13;2.10;;;8.30;99.90;;;;;;5012887;28;20240;-90
2021/10/08 04:10:14;;;;;;;2.60;1.93;;;8.30;99.90;;;;;;5014072;28;20214;-88
2021/10/08 04:12:47;;;;;;;2.97;1.80;;;8.30;99.90;;;;;;5014647;28;20271;-89
2021/10/08 04:15:19;;;;;;;3.53;2.37;;;8.20;99.90;;;;;;5003731;28;20233;-90
2021/10/08 04:17:50;;;;;;;2.93;2.30;;;8.20;99.90;;;;;;4997655;28;20209;-89
2021/10/08 04:20:24;;;;;;;2.67;2.17;;;8.20;99.90;;;;;;4998466;28;20225;-89
2021/10/08 04:22:56;;;;;;;3.37;2.50;;;8.10;99.90;;;;;;4997680;28;20317;-88
2021/10/08 04:25:33;;;;;;;3.27;2.20;;;8.10;99.90;;;;;;4976248;28;20214;-89
2021/10/08 04:30:56;;;;;;;3.93;2.40;;;8.00;99.90;;;;;;4988062;28;20213;-89
2021/10/08 04:33:30;;;;;;;3.13;2.57;;;7.90;99.90;;;;;;4978364;28;20278;-90
2021/10/08 04:36:01;;;;;;;2.80;2.30;;;7.90;99.90;;;;;;4988006;28;20218;-89
2021/10/08 04:38:35;;;;;;;4.90;2.27;;;7.90;99.90;;;;;;4988957;28;20221;-89
2021/10/08 04:41:06;;;;;;;2.93;2.50;;;7.90;99.90;;;;;;4990991;28;20253;-88
2021/10/08 04:43:40;;;;;;;7.17;2.90;;;7.80;99.90;;;;;;4993170;28;20211;-90
2021/10/08 04:46:14;;;;;;;3.33;2.77;;;7.80;99.90;;;;;;4978905;28;20217;-90
2021/10/08 04:48:46;;;;;;;4.63;3.10;;;7.80;99.90;;;;;;4977972;28;20215;-90
2021/10/08 04:51:20;;;;;;;5.03;3.20;;;7.80;99.90;;;;;;4995147;28;20205;-88
2021/10/08 04:53:52;;;;;;;5.23;4.30;;;7.70;99.90;;;;;;4992287;28;20213;-89
2021/10/08 04:56:23;;;;;;;6.53;5.50;;;7.60;99.90;;;;;;4991930;28;20216;-89
2021/10/08 04:58:56;;;;;;;8.53;6.73;;;7.60;99.90;;;;;;4987245;28;20224;-88
2021/10/08 05:01:28;;;;;;;8.20;6.03;;;7.60;99.90;;;;;;4994549;28;20190;-90
2021/10/08 05:03:59;;;;;;;7.17;5.47;;;7.50;99.90;;;;;;4998320;28;20205;-90
2021/10/08 05:06:31;;;;;;;8.13;5.83;;;7.50;99.90;;;;;;4998095;28;20213;-90
2021/10/08 05:09:06;;;;;;;6.33;5.50;;;7.40;99.90;;;;;;4999535;28;20193;-90
2021/10/08 05:14:24;;;;;;;6.30;4.57;;;7.30;99.90;;;;;;5427223;23;20221;-88
2021/10/08 05:16:55;;;;;;;4.50;3.97;;;7.20;99.90;;;;;;5038562;28;20191;-89
2021/10/08 05:19:27;;;;;;;5.67;4.90;;;7.20;99.90;;;;;;5027194;28;20219;-88
2021/10/08 05:21:59;;;;;;;6.97;4.03;;;7.20;99.90;;;;;;5053760;28;20222;-89
2021/10/08 05:24:32;;;;;;;4.83;4.07;;;7.20;99.90;;;;;;5034866;28;20302;-89
2021/10/08 05:27:04;;;;;;;5.37;3.97;;;7.20;99.90;;;;;;5044750;28;20206;-89
2021/10/08 05:29:39;;;;;;;4.57;3.67;;;7.10;99.90;;;;;;5045460;28;20233;-88
2021/10/08 05:32:10;;;;;;;4.23;3.80;;;7.10;99.90;;;;;;5044401;28;20219;-89
2021/10/08 05:34:41;;;;;;;3.43;2.90;;;7.10;99.90;;;;;;5046432;28;20306;-89
2021/10/08 05:37:16;;;;;;;3.93;3.30;;;7.10;99.90;;;;;;5045190;28;20202;-88
2021/10/08 05:39:48;;;;;;;3.07;2.80;;;7.00;99.90;;;;;;5046971;28;20217;-88
2021/10/08 05:42:20;;;;;;;6.07;3.43;;;7.00;99.90;;;;;;5044387;28;20229;-89
2021/10/08 05:44:53;;;;;;;3.73;2.80;;;6.90;99.90;;;;;;5044902;28;20216;-89
2021/10/08 05:47:25;;;;;;;2.83;2.60;;;6.90;99.90;;;;;;5044356;28;20546;-90
2021/10/08 05:49:57;;;;;;;4.30;3.10;;;6.90;99.90;;;;;;5043094;28;20235;-90
2021/10/08 05:52:28;;;;;;;5.10;3.50;;;6.90;99.90;;;;;;5041824;28;20205;-90
2021/10/08 05:54:59;;;;;;;5.13;4.37;;;6.90;99.90;;;;;;5041266;28;20256;-90
2021/10/08 05:57:31;;;;;;;5.63;4.90;;;6.90;99.90;;;;;;5046996;28;20220;-90
2021/10/08 06:00:07;;;;;;;6.00;5.47;;;6.90;99.90;;;;;;5041896;28;20215;-91
2021/10/08 06:02:39;;;;;;;7.80;7.00;;;6.90;99.90;;;;;;5034892;28;20220;-88
2021/10/08 06:05:10;;;;;;;8.17;7.23;;;6.80;99.90;;;;;;5020500;28;20229;-89
2021/10/08 06:07:42;;;;;;;9.23;7.70;;;6.90;99.90;;;;;;5021380;28;20252;-89
2021/10/08 06:10:13;;;;;;;7.83;7.13;;;6.80;99.90;;;;;;5022110;28;20205;-89
2021/10/08 06:12:45;;;;;;;7.13;6.53;;;6.80;99.90;;;;;;5021122;28;20206;-89
2021/10/08 06:15:19;;;;;;;6.10;5.60;;;6.80;99.90;;;;;;5019294;28;20246;-89
2021/10/08 06:17:50;;;;;;;6.03;5.43;;;6.70;99.90;;;;;;5022043;28;20218;-89
2021/10/08 06:20:21;;;;;;;5.77;4.80;;;6.70;99.90;;;;;;5021766;28;20209;-88
2021/10/08 06:22:53;;;;;;;5.80;5.20;;;6.70;99.90;;;;;;5020319;28;20220;-88
2021/10/08 06:25:24;;;;;;;6.23;4.33;;;6.70;99.90;;;;;;5019759;28;20615;-88
2021/10/08 06:27:56;;;;;;;4.47;3.70;;;6.70;99.90;;;;;;5021477;28;20209;-89
2021/10/08 06:30:31;;;;;;;4.33;3.93;;;6.70;99.90;;;;;;5021317;28;20213;-89
2021/10/08 06:33:03;;;;;;;6.53;4.23;;;6.70;99.90;;;;;;5022819;28;20225;-89
2021/10/08 06:41:28;;;;;;;3.30;3.00;;;6.60;99.90;;;;;;5046339;23;20257;-89
2021/10/08 06:44:02;;;;;;;2.73;2.53;;;6.60;99.90;;;;;;5010211;28;20651;-88
2021/10/08 06:46:39;;;;;;;4.20;2.90;;;6.60;99.90;;;;;;5012826;28;20222;-89
2021/10/08 06:49:19;;;;;;;3.33;2.80;;;6.60;99.90;;;;;;5006199;28;20206;-88
2021/10/08 06:51:52;;;;;;;3.37;3.07;;;6.60;99.90;;;;;;5006592;28;20224;-89
2021/10/08 06:54:23;;;;;;;3.97;3.00;;;6.60;99.90;;;;;;5001888;28;20206;-89
2021/10/08 06:56:56;;;;;;;6.87;3.80;;;6.60;99.90;;;;;;4999532;28;20237;-89
2021/10/08 06:59:27;;;;;;;5.33;3.33;;;6.60;99.90;;;;;;4999105;28;20728;-89
2021/10/08 07:02:01;;;;;;;3.40;2.63;;;6.50;99.90;;;;;;5000075;28;20245;-89
2021/10/08 07:04:33;;;;;;;3.57;2.70;;;6.60;99.90;;;;;;4999293;28;20234;-89
2021/10/08 07:07:05;;;;;;;4.27;3.07;;;6.50;99.90;;;;;;4996471;28;20214;-89
2021/10/08 07:09:36;;;;;;;4.07;3.13;;;6.50;99.90;;;;;;4998821;28;20310;-89
2021/10/08 07:12:08;;;;;;;4.17;3.30;;;6.50;99.90;;;;;;4999177;28;20218;-89
2021/10/08 07:14:42;;;;;;;3.53;3.23;;;6.50;99.90;;;;;;4999186;28;20230;-89
2021/10/08 07:17:15;;;;;;;3.57;3.13;;;6.50;99.90;;;;;;4997484;28;20246;-89
2021/10/08 07:19:47;;;;;;;5.03;3.30;;;6.50;99.90;;;;;;4997591;28;20239;-89
2021/10/08 07:22:19;;;;;;;4.37;2.97;;;6.50;99.90;;;;;;4981122;28;20207;-88
2021/10/08 07:24:50;;;;;;;6.40;4.30;;;6.50;99.90;;;;;;4997388;28;20243;-88
2021/10/08 07:27:23;;;;;;;6.03;3.80;;;6.50;99.90;;;;;;4998406;28;20216;-87
2021/10/08 07:29:55;;;;;;;5.77;4.10;;;6.50;99.90;;;;;;5014567;28;20233;-88
2021/10/08 07:32:29;;;;;;;5.50;3.93;;;6.50;99.90;;;;;;5013785;28;20214;-89
2021/10/08 07:35:01;;;;;;;5.90;4.17;;;6.50;99.90;;;;;;5005669;28;20213;-88
2021/10/08 07:37:33;;;;;;;5.60;3.93;;;6.50;99.90;;;;;;4999014;28;20583;-88
2021/10/08 07:40:06;;;;;;;4.20;3.70;;;6.50;99.90;;;;;;4998475;28;20236;-88
2021/10/08 07:42:38;;;;;;;4.70;3.83;;;6.50;99.90;;;;;;5001912;28;20215;-88
2021/10/08 07:45:10;;;;;;;5.07;3.97;;;6.40;99.90;;;;;;4997241;28;20238;-88
2021/10/08 07:47:45;;;;;;;6.30;4.43;;;6.40;99.90;;;;;;4998574;28;20298;-88
2021/10/08 07:50:17;;;;;;;7.13;4.67;;;6.40;99.90;;;;;;4999652;28;20206;-88
2021/10/08 07:52:48;;;;;;;4.57;4.13;;;6.40;99.90;;;;;;5004299;28;20210;-89
2021/10/08 07:55:20;;;;;;;6.97;4.10;;;6.50;99.90;;;;;;5000846;28;20228;-90
2021/10/08 07:57:52;;;;;;;6.37;4.20;;;6.40;99.90;;;;;;4995604;28;20222;-89
2021/10/08 08:00:23;;;;;;;4.80;4.30;;;6.40;99.90;;;;;;4999389;28;20238;-89
2021/10/08 08:02:56;;;;;;;7.50;4.40;;;6.40;99.90;;;;;;5000110;28;20250;-90
2021/10/08 08:05:29;;;;;;;4.93;4.07;;;6.40;99.90;;;;;;5003819;28;20221;-89
2021/10/08 08:08:02;;;;;;;4.53;4.13;;;6.40;99.90;;;;;;5007404;28;20229;-89
2021/10/08 08:10:34;;;;;;;4.63;4.20;;;6.30;99.90;;;;;;5000800;28;20206;-89
2021/10/08 08:13:05;;;;;;;4.97;4.47;;;6.30;99.90;;;;;;4996714;28;20204;-90
2021/10/08 08:15:36;;;;;;;5.23;4.27;;;6.30;99.90;;;;;;5001292;28;20256;-90
2021/10/08 08:18:11;;;;;;;5.70;4.00;;;6.30;99.90;;;;;;4997719;28;20663;-89
2021/10/08 08:20:43;;;;;;;4.10;3.70;;;6.30;99.90;;;;;;4980625;28;20293;-89
2021/10/08 08:23:15;;;;;;;4.83;4.30;;;6.20;99.90;;;;;;4996438;28;20215;-88
2021/10/08 08:25:46;;;;;;;5.57;4.03;;;6.20;99.90;;;;;;4979166;28;20253;-89
2021/10/08 08:28:18;;;;;;;4.13;3.73;;;6.20;99.90;;;;;;4996495;28;20249;-88
2021/10/08 08:30:49;;;;;;;6.03;3.60;;;6.20;99.90;;;;;;5000097;28;20209;-88
2021/10/08 08:33:23;;;;;;;4.13;3.73;;;6.20;99.90;;;;;;5000896;28;20214;-89
2021/10/08 08:35:55;;;;;;;4.33;3.93;;;6.20;99.90;;;;;;5000152;28;20257;-88
2021/10/08 08:38:26;;;;;;;4.47;4.00;;;6.10;99.90;;;;;;5000061;28;20256;-89
2021/10/08 08:41:00;;;;;;;4.73;3.83;;;6.10;99.90;;;;;;5000633;28;20218;-89
2021/10/08 08:43:31;;;;;;;6.77;4.33;;;6.00;99.90;;;;;;5000792;28;20293;-88
2021/10/08 08:46:02;;;;;;;4.03;3.57;;;6.00;99.90;;;;;;4988143;28;20291;-88
2021/10/08 08:48:36;;;;;;;6.30;3.70;;;5.90;99.90;;;;;;4980666;28;20207;-89
2021/10/08 08:51:07;;;;;;;5.73;3.70;;;5.90;99.90;;;;;;4981557;28;20207;-89
2021/10/08 08:53:39;;;;;;;3.47;3.17;;;5.90;99.90;;;;;;4980160;28;20206;-89
2021/10/08 08:56:10;;;;;;;4.83;3.23;;;5.80;99.90;;;;;;4980965;28;20294;-90
2021/10/08 08:58:42;;;;;;;6.93;3.70;;;5.80;99.90;;;;;;4980894;28;20207;-89
2021/10/08 09:01:14;;;;;;;3.77;3.30;;;5.80;99.90;;;;;;4949038;28;20242;-90
2021/10/08 09:04:11;;;;;;;4.47;3.40;;;5.80;99.90;;;;;;4985253;28;20215;-89
2021/10/08 09:06:42;;;;;;;3.70;3.20;;;5.80;99.90;;;;;;4983253;28;20206;-89
2021/10/08 09:09:19;;;;;;;4.00;3.10;;;5.70;99.90;;;;;;4982840;28;20213;-89
2021/10/08 09:11:52;;;;;;;3.50;3.17;;;5.70;99.90;;;;;;4983134;28;20198;-89
2021/10/08 09:14:26;;;;;;;4.90;3.47;;;5.70;99.90;;;;;;4983124;28;20223;-89
2021/10/08 09:17:15;;;;;;;6.53;3.83;;;5.60;99.90;;;;;;4982467;28;20234;-89
2021/10/08 09:19:52;;;;;;;5.50;3.20;;;5.60;99.90;;;;;;4983974;28;20223;-89
2021/10/08 09:22:25;;;;;;;4.47;3.47;;;5.60;99.90;;;;;;4993401;28;20217;-89
2021/10/08 09:25:12;;;;;;;4.23;3.20;;;5.60;99.90;;;;;;5003259;28;20293;-88
2021/10/08 09:27:45;;;;;;;4.17;3.50;;;5.60;99.90;;;;;;5001842;28;20251;-89
2021/10/08 09:30:18;;;;;;;5.13;3.63;;;5.50;99.90;;;;;;5009101;28;20233;-88
2021/10/08 09:32:54;;;;;;;4.43;3.53;;;5.60;99.90;;;;;;5002853;28;20206;-88
2021/10/08 09:35:28;;;;;;;3.63;3.27;;;5.50;99.90;;;;;;5001983;28;21035;-88
2021/10/08 09:38:10;;;;;;;5.37;3.30;;;5.50;99.90;;;;;;5006485;28;20260;-88
2021/10/08 09:40:45;;;;;;;3.93;3.53;;;5.60;99.90;;;;;;5018063;28;20237;-89
2021/10/08 09:43:27;;;;;;;5.30;3.07;;;5.60;99.90;;;;;;5016009;28;20205;-89
2021/10/08 09:46:00;;;;;;;9.13;3.10;;;5.50;99.90;;;;;;5000036;28;20210;-88
2021/10/08 09:48:41;;;;;;;5.10;3.30;;;5.40;99.90;;;;;;4999895;28;20237;-88
2021/10/08 09:51:16;;;;;;;5.73;3.23;;;5.40;99.90;;;;;;5002298;28;20253;-89
2021/10/08 09:53:57;;;;;;;3.93;3.00;;;5.40;99.90;;;;;;5000023;28;20233;-91
2021/10/08 09:56:35;;;;;;;6.00;3.10;;;5.30;99.90;;;;;;5001447;28;20241;-90
2021/10/08 09:59:07;;;;;;;4.43;3.67;;;5.20;99.90;;;;;;4988273;28;20233;-89
2021/10/08 10:01:41;;;;;;;5.07;2.83;;;5.20;99.90;;;;;;5010202;28;20286;-89
2021/10/08 10:04:13;;;;;;;4.40;2.77;;;5.10;99.90;;;;;;5004884;28;20206;-88
2021/10/08 10:06:47;;;;;;;4.80;2.97;;;5.10;99.90;;;;;;4998072;28;20313;-89
2021/10/08 10:09:21;;;;;;;5.03;3.03;;;5.10;99.90;;;;;;4998953;28;20217;-88
2021/10/08 10:11:52;;;;;;;5.03;3.17;;;5.10;99.90;;;;;;4999884;28;20286;-88
2021/10/08 10:14:29;;;;;;;4.13;3.40;;;5.10;99.90;;;;;;5000249;28;20301;-89
2021/10/08 10:17:00;;;;;;;4.83;3.53;;;5.10;99.90;;;;;;4998815;28;20264;-90
2021/10/08 10:19:33;;;;;;;4.50;3.10;;;5.20;99.90;;;;;;5001246;28;20214;-89
2021/10/08 10:22:14;;;;;;;5.30;3.67;;;5.10;99.90;;;;;;4999784;28;20214;-88
2021/10/08 10:24:47;;;;;;;3.97;3.40;;;5.10;99.90;;;;;;4996881;28;20261;-88
2021/10/08 10:27:20;;;;;;;4.23;3.57;;;5.20;99.90;;;;;;4980938;28;20225;-87
2021/10/08 10:29:51;;;;;;;4.37;3.70;;;5.10;99.90;;;;;;4997171;28;20266;-87
2021/10/08 10:32:23;;;;;;;3.77;3.27;;;5.10;99.90;;;;;;4998398;28;20210;-87
2021/10/08 10:34:54;;;;;;;5.10;3.70;;;5.00;99.90;;;;;;4980066;28;20659;-88
2021/10/08 10:37:41;;;;;;;5.63;3.90;;;5.10;99.90;;;;;;4997308;28;20262;-88
2021/10/08 10:40:22;;;;;;;4.93;3.33;;;5.10;99.90;;;;;;4981139;28;20218;-88
2021/10/08 10:43:34;;;;;;;5.23;3.23;;;5.10;99.90;;;;;;4998509;28;20206;-88
2021/10/08 10:46:31;;;;;;;3.50;3.17;;;5.10;99.90;;;;;;4996889;28;20221;-88
2021/10/08 10:49:41;;;;;;;3.83;3.07;;;5.10;99.90;;;;;;4996958;28;20214;-88
2021/10/08 10:52:29;;;;;;;4.67;3.40;;;5.00;99.90;;;;;;4996811;28;20214;-89
2021/10/08 10:55:11;;;;;;;5.63;2.93;;;4.90;99.90;;;;;;4982589;28;20202;-89
2021/10/08 10:58:03;;;;;;;3.57;3.07;;;4.90;99.90;;;;;;4997536;28;20244;-89
2021/10/08 11:00:45;;;;;;;4.00;2.90;;;4.90;99.90;;;;;;4997904;28;20214;-89
2021/10/08 11:03:20;;;;;;;4.33;3.10;;;4.90;99.90;;;;;;4997421;28;20249;-90
2021/10/08 11:09:21;;;;;;;2.97;2.67;;;5.00;99.90;;;;;;5063658;27;2734438;-89
2021/10/08 11:12:33;;;;;;;3.97;3.07;;;5.00;99.90;;;;;;5136341;28;20269;-89
2021/10/08 11:15:36;;;;;;;3.43;3.00;;;5.00;99.90;;;;;;5049892;28;20231;-90
2021/10/08 11:18:07;;;;;;;2.80;2.50;;;5.00;99.90;;;;;;5134532;28;20577;-90
2021/10/08 11:20:47;;;;;;;2.97;2.67;;;5.00;99.90;;;;;;5134412;28;20201;-88
2021/10/08 11:23:30;;;;;;;3.80;2.93;;;5.10;99.90;;;;;;5134481;28;20205;-89
2021/10/08 11:26:06;;;;;;;3.10;2.50;;;5.10;99.90;;;;;;5133590;28;20396;-89
2021/10/08 11:28:40;;;;;;;3.63;2.93;;;5.10;99.90;;;;;;5133832;28;20237;-89
2021/10/08 11:31:15;;;;;;;4.10;3.10;;;5.20;99.90;;;;;;5116302;28;20229;-88
2021/10/08 11:33:49;;;;;;;3.30;2.83;;;5.30;99.90;;;;;;5135588;27;20212;-88
2021/10/08 11:36:29;;;;;;;4.20;3.10;;;5.30;99.90;;;;;;5133209;28;20205;-89
2021/10/08 11:39:11;;;;;;;3.67;3.00;;;5.40;99.90;;;;;;5133798;28;20198;-88
2021/10/08 11:42:02;;;;;;;3.77;3.40;;;5.50;99.90;;;;;;5116078;28;20240;-88
2021/10/08 11:44:35;;;;;;;3.87;3.40;;;5.60;99.90;;;;;;5134003;28;20650;-88
2021/10/08 11:47:25;;;;;;;4.40;3.60;;;5.70;99.90;;;;;;5145714;27;20308;-89
2021/10/08 11:50:14;;;;;;;3.47;3.00;;;5.70;99.90;;;;;;5152761;27;20202;-89
2021/10/08 11:52:47;;;;;;;4.93;4.10;;;5.80;99.90;;;;;;5147629;27;20209;-90
2021/10/08 11:55:20;;;;;;;4.30;3.90;;;5.90;99.90;;;;;;5134630;28;20223;-89
2021/10/08 11:57:59;;;;;;;5.80;4.53;;;6.00;99.90;;;;;;5135415;28;20202;-89
2021/10/08 12:00:37;;;;;;;4.77;4.33;;;6.00;99.90;;;;;;5134354;28;20210;-90
2021/10/08 12:03:11;;;;;;;6.73;4.33;;;6.10;99.90;;;;;;5134450;28;20293;-90
2021/10/08 12:05:52;;;;;;;5.30;4.47;;;6.10;99.90;;;;;;5132977;28;20201;-89
2021/10/08 12:08:24;;;;;;;6.93;4.73;;;6.20;99.90;;;;;;5135128;28;20221;-89
2021/10/08 12:11:02;;;;;;;7.77;5.37;;;6.30;99.90;;;;;;5133277;28;20228;-89
2021/10/08 12:13:48;;;;;;;12.17;5.97;;;6.40;99.90;;;;;;5116207;28;20281;-89
2021/10/08 12:16:21;;;;;;;11.43;7.30;;;6.40;99.90;;;;;;5132873;28;20205;-89
2021/10/08 12:18:55;;;;;;;12.80;6.63;;;6.50;99.90;;;;;;5129151;28;20209;-89
2021/10/08 12:21:31;;;;;;;11.53;7.57;;;6.60;99.90;;;;;;5119722;28;20193;-88
2021/10/08 12:24:04;;;;;;;13.97;8.17;;;6.60;99.90;;;;;;5119404;28;20206;-88
2021/10/08 12:26:40;;;;;;;11.17;7.77;;;6.60;99.90;;;;;;5119439;28;20218;-88
2021/10/08 12:29:16;;;;;;;18.07;9.17;;;6.60;99.90;;;;;;5118738;28;20241;-88
2021/10/08 12:31:53;;;;;;;12.90;8.63;;;6.70;99.90;;;;;;5117801;28;20650;-88
2021/10/08 12:34:38;;;;;;;14.90;10.07;;;6.70;99.90;;;;;;5118456;28;20210;-88
2021/10/08 12:37:11;;;;;;;18.70;9.90;;;6.80;99.90;;;;;;5118912;28;20205;-88
2021/10/08 12:40:00;;;;;;;63.13;11.17;;;6.80;99.90;;;;;;5118947;28;20207;-88
2021/10/08 12:42:36;;;;;;;14.27;9.57;;;6.80;99.90;;;;;;5122883;28;20584;-88
2021/10/08 12:48:00;;;;;;;19.53;9.73;;;6.80;99.90;;;;;;5102872;28;20223;-87
2021/10/08 12:50:34;;;;;;;19.57;10.90;;;6.80;99.90;;;;;;5098038;28;20208;-89
2021/10/08 12:53:16;;;;;;;29.20;11.53;;;6.80;99.90;;;;;;5099406;28;20220;-89
2021/10/08 12:55:49;;;;;;;17.13;10.27;;;6.90;99.90;;;;;;5099503;28;20906;-89
2021/10/08 12:58:24;;;;;;;20.03;10.10;;;6.80;99.90;;;;;;5099994;28;20203;-89
2021/10/08 13:01:00;;;;;;;18.03;10.13;;;6.90;99.90;;;;;;5098836;28;20216;-89
2021/10/08 13:03:48;;;;;;;16.03;8.97;;;6.90;99.90;;;;;;5099436;28;20207;-89
2021/10/08 13:06:29;;;;;;;17.43;9.50;;;6.90;99.90;;;;;;5098015;28;20214;-89
2021/10/08 13:09:12;;;;;;;13.93;9.13;;;6.90;99.90;;;;;;5099099;28;20666;-88
2021/10/08 13:11:46;;;;;;;15.63;8.57;;;6.90;99.90;;;;;;5098615;28;20228;-89
2021/10/08 13:14:23;;;;;;;12.63;7.87;;;6.80;99.90;;;;;;5098801;28;20210;-89
2021/10/08 13:16:57;;;;;;;12.37;7.90;;;6.70;99.90;;;;;;5097658;28;20229;-89
2021/10/08 13:19:31;;;;;;;11.03;7.10;;;6.70;99.90;;;;;;5098684;28;20208;-89
2021/10/08 13:22:03;;;;;;;10.20;6.97;;;6.70;99.90;;;;;;5098267;28;20214;-88
2021/10/08 13:24:35;;;;;;;7.97;5.40;;;6.70;99.90;;;;;;5098556;28;20236;-88
2021/10/08 13:27:06;;;;;;;9.23;5.70;;;6.70;99.90;;;;;;5097400;28;20203;-89
2021/10/08 13:29:38;;;;;;;7.57;5.40;;;6.70;99.90;;;;;;5097674;28;20231;-89
2021/10/08 13:32:13;;;;;;;7.57;5.20;;;6.70;99.90;;;;;;5098970;28;20210;-89
2021/10/08 13:34:46;;;;;;;13.30;5.20;;;6.80;99.90;;;;;;5101965;28;20262;-90
2021/10/08 13:37:17;;;;;;;11.80;5.80;;;6.80;99.90;;;;;;5098609;28;20219;-89
2021/10/08 13:39:48;;;;;;;18.40;5.90;;;6.80;99.90;;;;;;5103870;28;20207;-88
2021/10/08 13:42:20;;;;;;;10.27;5.00;;;6.80;99.90;;;;;;5118453;28;20744;-88
2021/10/08 13:44:51;;;;;;;16.93;5.83;;;6.80;99.90;;;;;;5100183;28;20232;-88
2021/10/08 13:47:24;;;;;;;28.43;5.90;;;6.80;99.90;;;;;;5118061;28;20238;-89
2021/10/08 13:49:55;;;;;;;19.60;6.40;;;6.70;99.90;;;;;;5117811;28;20229;-89
2021/10/08 13:52:27;;;;;;;24.83;5.23;;;6.80;99.90;;;;;;5118613;28;20305;-90
2021/10/08 13:55:00;;;;;;;24.23;5.53;;;6.80;99.90;;;;;;5119105;28;20202;-90
2021/10/08 13:57:31;;;;;;;7.93;5.70;;;6.70;99.90;;;;;;5119947;28;20230;-90
2021/10/08 14:00:03;;;;;;;8.13;5.00;;;6.70;99.90;;;;;;5137565;28;20196;-89
2021/10/08 14:02:42;;;;;;;9.93;5.57;;;6.70;99.90;;;;;;5118031;28;20209;-90
2021/10/08 14:05:24;;;;;;;7.73;5.40;;;6.80;99.90;;;;;;5131207;28;20646;-89
2021/10/08 14:10:41;;;;;;;7.17;5.17;;;6.80;99.90;;;;;;5109242;28;20259;-89
2021/10/08 14:13:16;;;;;;;23.60;6.17;;;6.80;99.90;;;;;;5092257;28;20211;-88
2021/10/08 14:15:47;;;;;;;54.77;7.03;;;6.80;99.90;;;;;;5106335;28;20225;-89
2021/10/08 14:18:21;;;;;;;28.20;6.93;;;6.80;99.90;;;;;;5117412;28;20570;-89
2021/10/08 14:20:52;;;;;;;34.60;7.17;;;6.80;99.90;;;;;;5116798;28;20227;-88
2021/10/08 14:23:28;;;;;;;28.97;6.77;;;6.80;99.90;;;;;;5117474;28;20199;-87
2021/10/08 14:25:59;;;;;;;41.97;6.90;;;6.80;99.90;;;;;;5114239;28;20234;-88
2021/10/08 14:28:31;;;;;;;16.67;6.10;;;6.80;99.90;;;;;;5095831;28;20207;-88
2021/10/08 14:31:02;;;;;;;12.60;6.03;;;6.70;99.90;;;;;;5079722;28;20247;-89
2021/10/08 14:33:36;;;;;;;8.23;5.50;;;6.80;99.90;;;;;;5097796;28;20716;-88
2021/10/08 14:36:08;;;;;;;9.63;6.43;;;6.80;99.90;;;;;;5096643;28;20203;-88
2021/10/08 14:38:39;;;;;;;10.30;5.83;;;6.70;99.90;;;;;;5096834;28;20231;-88